Time;durP1;ratioP1;P1;durP2;ratioP2;P2;SDS_P1;SDS_P2;PMS_P1;PMS_P2;Temp;Humidity;BMP_temperature;BMP_pressure;BME280_temperature;BME280_humidity;BME280_pressure;Samples;Min_cycle;Max_cycle;Signal;HPM_P1;HPM_P2
2022/06/25 00:01:50;;;;;;;;;;;;;;;31.99;28.54;99162.28;4408162;32;20020;-70
2022/06/25 00:07:02;;;;;;;;;;;;;;;31.73;28.87;99180.84;4409584;32;19977;-70
2022/06/25 00:09:28;;;;;;;;;;;;;;;31.83;29.07;99174.97;4409210;32;20085;-70
2022/06/25 00:14:39;;;;;;;;;;;;;;;31.30;29.60;99188.00;4410087;32;19990;-70
2022/06/25 00:17:04;;;;;;;;;;;;;;;31.49;29.35;99184.22;4407939;32;21052;-70
2022/06/25 00:19:30;;;;;;;;;;;;;;;31.60;29.05;99192.25;4408496;32;21110;-70
2022/06/25 00:21:56;;;;;;;;;;;;;;;31.25;29.38;99179.56;4411641;32;19957;-70
2022/06/25 00:24:21;;;;;;;;;;;;;;;31.37;29.08;99189.19;4411000;32;19997;-70
2022/06/25 00:26:50;;;;;;;;;;;;;;;31.08;29.58;99185.66;4410667;32;19971;-70
2022/06/25 00:29:15;;;;;;;;;;;;;;;31.07;29.55;99189.94;4394937;32;20300;-70
2022/06/25 00:31:42;;;;;;;;;;;;;;;30.83;29.76;99197.66;4408750;32;20016;-70
2022/06/25 00:34:07;;;;;;;;;;;;;;;30.98;29.55;99199.47;4409358;32;19972;-70
2022/06/25 00:36:33;;;;;;;;;;;;;;;30.47;30.57;99195.75;4409959;32;19996;-70
2022/06/25 00:38:58;;;;;;;;;;;;;;;30.13;31.27;99204.03;4408282;32;19961;-70
2022/06/25 00:41:24;;;;;;;;;;;;;;;30.66;30.16;99201.53;4409569;32;20418;-70
2022/06/25 00:43:49;;;;;;;;;;;;;;;31.35;29.35;99218.13;4408208;32;19997;-70
2022/06/25 00:46:15;;;;;;;;;;;;;;;31.10;29.64;99209.03;4410970;32;20378;-70
2022/06/25 00:48:41;;;;;;;;;;;;;;;30.60;30.62;99209.03;4411496;32;20583;-70
2022/06/25 00:51:10;;;;;;;;;;;;;;;30.92;30.08;99225.16;4412528;32;20243;-70
2022/06/25 00:53:39;;;;;;;;;;;;;;;30.96;30.04;99208.78;4411226;32;19962;-70
2022/06/25 00:56:05;;;;;;;;;;;;;;;30.85;30.37;99235.56;4409303;32;19953;-70
2022/06/25 00:58:32;;;;;;;;;;;;;;;30.65;30.51;99231.91;4411143;32;20469;-70
2022/06/25 01:00:59;;;;;;;;;;;;;;;30.31;30.77;99232.28;4410056;32;19963;-70
2022/06/25 01:03:25;;;;;;;;;;;;;;;30.42;30.48;99245.41;4407467;32;19962;-70
2022/06/25 01:05:50;;;;;;;;;;;;;;;30.36;30.49;99247.84;4412374;32;20368;-70
2022/06/25 01:08:17;;;;;;;;;;;;;;;30.35;30.27;99250.03;4410572;32;20370;-70
2022/06/25 01:10:42;;;;;;;;;;;;;;;30.78;29.32;99242.31;4410169;32;19993;-70
2022/06/25 01:13:08;;;;;;;;;;;;;;;30.26;29.86;99244.22;4409181;32;19993;-70
2022/06/25 01:15:33;;;;;;;;;;;;;;;29.73;29.83;99253.91;4411473;32;20004;-70
2022/06/25 01:17:59;;;;;;;;;;;;;;;30.04;29.50;99242.50;4410353;32;20016;-70
2022/06/25 01:20:25;;;;;;;;;;;;;;;30.19;29.11;99256.75;4407259;32;21099;-70
2022/06/25 01:22:50;;;;;;;;;;;;;;;29.73;29.22;99253.91;4408772;32;19957;-69
2022/06/25 01:25:16;;;;;;;;;;;;;;;29.69;28.98;99255.75;4410606;32;19958;-69
2022/06/25 01:27:42;;;;;;;;;;;;;;;29.69;28.93;99252.84;4409579;32;20481;-69
2022/06/25 01:30:10;;;;;;;;;;;;;;;29.53;28.90;99260.22;4408448;32;19995;-69
2022/06/25 01:32:35;;;;;;;;;;;;;;;30.02;28.13;99254.72;4407208;32;20029;-69
2022/06/25 01:35:01;;;;;;;;;;;;;;;30.18;27.67;99266.78;4408529;32;19976;-69
2022/06/25 01:37:26;;;;;;;;;;;;;;;29.66;28.66;99259.84;4410482;32;20014;-69
2022/06/25 01:39:54;;;;;;;;;;;;;;;30.22;27.75;99258.41;4414775;32;20005;-69
2022/06/25 01:45:05;;;;;;;;;;;;;;;30.00;27.90;99260.34;4412893;32;20473;-69
2022/06/25 01:47:31;;;;;;;;;;;;;;;30.32;27.47;99256.28;4410579;32;20412;-69
2022/06/25 01:49:58;;;;;;;;;;;;;;;30.35;27.43;99255.06;4410910;32;20373;-69
2022/06/25 01:52:23;;;;;;;;;;;;;;;30.33;27.37;99264.38;4412828;32;19985;-69
2022/06/25 01:54:49;;;;;;;;;;;;;;;30.46;27.24;99271.84;4411331;32;20001;-69
2022/06/25 01:57:15;;;;;;;;;;;;;;;30.29;27.59;99272.78;4409433;32;20400;-69
2022/06/25 01:59:41;;;;;;;;;;;;;;;30.36;27.42;99280.56;4410834;32;19999;-69
2022/06/25 02:02:07;;;;;;;;;;;;;;;30.98;26.79;99277.91;4412597;32;20005;-69
2022/06/25 02:04:32;;;;;;;;;;;;;;;30.75;27.03;99278.41;4413096;32;19949;-69
2022/06/25 02:06:58;;;;;;;;;;;;;;;31.03;26.71;99286.28;4412939;32;20011;-69
2022/06/25 02:09:23;;;;;;;;;;;;;;;31.19;26.90;99284.56;4413053;32;20810;-69
2022/06/25 02:11:48;;;;;;;;;;;;;;;31.36;26.83;99290.19;4411901;32;19989;-69
2022/06/25 02:14:15;;;;;;;;;;;;;;;30.94;27.44;99289.97;4413501;32;19945;-69
2022/06/25 02:16:41;;;;;;;;;;;;;;;30.48;28.26;99286.50;4409816;32;20035;-69
2022/06/25 02:19:08;;;;;;;;;;;;;;;30.53;27.98;99274.56;4409263;32;20369;-69
2022/06/25 02:21:34;;;;;;;;;;;;;;;30.33;28.35;99283.91;4411703;32;20013;-69
2022/06/25 02:23:59;;;;;;;;;;;;;;;30.13;28.78;99280.22;4413952;32;20003;-69
2022/06/25 02:26:25;;;;;;;;;;;;;;;30.38;28.39;99292.34;4410308;32;20027;-69
2022/06/25 02:28:50;;;;;;;;;;;;;;;30.23;28.79;99295.53;4410835;32;20015;-69
2022/06/25 02:31:16;;;;;;;;;;;;;;;30.31;28.42;99293.22;4411044;32;20671;-69
2022/06/25 02:33:41;;;;;;;;;;;;;;;30.26;28.67;99299.34;4410044;32;20598;-69
2022/06/25 02:36:07;;;;;;;;;;;;;;;29.90;28.94;99294.38;4411343;32;20132;-69
2022/06/25 02:38:33;;;;;;;;;;;;;;;29.81;28.94;99300.16;4411622;32;19976;-69
2022/06/25 02:40:58;;;;;;;;;;;;;;;29.88;28.79;99314.53;4410366;32;20088;-69
2022/06/25 02:43:24;;;;;;;;;;;;;;;30.03;28.59;99328.00;4400081;32;19992;-70
2022/06/25 02:45:49;;;;;;;;;;;;;;;29.85;28.62;99323.69;4409534;32;20003;-70
2022/06/25 02:48:16;;;;;;;;;;;;;;;29.29;29.06;99328.63;4410401;32;19993;-69
2022/06/25 02:50:43;;;;;;;;;;;;;;;29.30;29.08;99314.91;4411478;32;19993;-70
2022/06/25 02:53:09;;;;;;;;;;;;;;;29.07;28.98;99326.84;4410320;32;19993;-70
2022/06/25 03:01:08;;;;;;;;;;;;;;;29.16;28.47;99326.12;4409634;32;19953;-70
2022/06/25 03:03:33;;;;;;;;;;;;;;;29.28;28.22;99326.34;4411602;32;19965;-70
2022/06/25 03:05:59;;;;;;;;;;;;;;;28.76;28.79;99319.91;4410033;32;19973;-70
2022/06/25 03:08:25;;;;;;;;;;;;;;;28.70;28.83;99320.19;4411853;32;20031;-69
2022/06/25 03:10:51;;;;;;;;;;;;;;;28.91;28.40;99326.28;4383334;32;20420;-69
2022/06/25 03:13:16;;;;;;;;;;;;;;;28.45;29.22;99325.31;4411495;32;19964;-69
2022/06/25 03:15:42;;;;;;;;;;;;;;;28.54;29.07;99320.97;4409523;32;19967;-69
2022/06/25 03:18:07;;;;;;;;;;;;;;;28.59;28.88;99326.50;4410418;32;20012;-69
2022/06/25 03:20:33;;;;;;;;;;;;;;;28.34;29.37;99327.91;4411843;32;19958;-69
2022/06/25 03:22:58;;;;;;;;;;;;;;;28.06;29.95;99340.00;4411642;32;19997;-70
2022/06/25 03:25:24;;;;;;;;;;;;;;;28.29;29.64;99346.31;4407459;32;19998;-71
2022/06/25 03:27:49;;;;;;;;;;;;;;;27.22;31.28;99330.44;4410151;32;20001;-69
2022/06/25 03:30:16;;;;;;;;;;;;;;;27.49;30.89;99348.00;4406126;32;20016;-69
2022/06/25 03:32:41;;;;;;;;;;;;;;;27.44;31.13;99334.53;4409799;32;19985;-70
2022/06/25 03:35:07;;;;;;;;;;;;;;;27.39;31.18;99318.97;4410340;32;20040;-70
2022/06/25 03:37:32;;;;;;;;;;;;;;;28.14;30.16;99343.56;4409587;32;20339;-70
2022/06/25 03:39:59;;;;;;;;;;;;;;;27.85;30.64;99346.13;4396690;32;19991;-70
2022/06/25 03:42:24;;;;;;;;;;;;;;;27.62;31.09;99350.59;4410891;32;20272;-70
2022/06/25 03:44:50;;;;;;;;;;;;;;;27.93;30.64;99352.66;4409927;32;19946;-70
2022/06/25 03:47:16;;;;;;;;;;;;;;;27.82;30.60;99350.22;4411309;32;20011;-69
2022/06/25 03:49:41;;;;;;;;;;;;;;;27.80;30.62;99358.72;4409278;32;19946;-70
2022/06/25 03:52:07;;;;;;;;;;;;;;;27.66;31.05;99348.03;4409033;32;20055;-70
2022/06/25 03:54:32;;;;;;;;;;;;;;;27.87;30.56;99351.34;4408973;32;20338;-70
2022/06/25 03:56:57;;;;;;;;;;;;;;;27.83;30.76;99356.75;4408950;32;19957;-70
2022/06/25 03:59:23;;;;;;;;;;;;;;;27.36;31.21;99359.84;4408880;32;20324;-71
2022/06/25 04:01:49;;;;;;;;;;;;;;;27.25;31.55;99366.84;4409897;32;19976;-70
2022/06/25 04:04:14;;;;;;;;;;;;;;;27.05;31.45;99367.87;4408796;32;20288;-70
2022/06/25 04:06:40;;;;;;;;;;;;;;;26.99;31.65;99359.44;4409043;32;20009;-69
2022/06/25 04:09:05;;;;;;;;;;;;;;;27.46;31.21;99367.28;4409370;32;19997;-69
2022/06/25 04:11:31;;;;;;;;;;;;;;;26.98;31.86;99362.91;4411421;32;20021;-70
2022/06/25 04:13:57;;;;;;;;;;;;;;;26.95;31.91;99366.97;4410452;32;19958;-70
2022/06/25 04:16:23;;;;;;;;;;;;;;;27.39;31.13;99362.31;4410069;32;21420;-71
2022/06/25 04:18:48;;;;;;;;;;;;;;;27.09;31.43;99371.16;4408950;32;20000;-70
2022/06/25 04:21:14;;;;;;;;;;;;;;;27.69;30.71;99367.87;4410860;32;19989;-70
2022/06/25 04:23:40;;;;;;;;;;;;;;;27.30;31.35;99380.28;4409983;32;20469;-70
2022/06/25 04:26:06;;;;;;;;;;;;;;;27.96;30.32;99379.62;4409480;32;20020;-70
2022/06/25 04:31:17;;;;;;;;;;;;;;;27.39;31.23;99391.19;4408631;32;20007;-70
2022/06/25 04:33:43;;;;;;;;;;;;;;;27.61;30.83;99390.25;4406976;32;19962;-70
2022/06/25 04:36:09;;;;;;;;;;;;;;;27.32;31.31;99386.25;4396304;32;20007;-70
2022/06/25 04:38:34;;;;;;;;;;;;;;;27.25;31.11;99400.72;4410204;32;20053;-70
2022/06/25 04:40:59;;;;;;;;;;;;;;;27.73;30.69;99396.38;4408703;32;19980;-70
2022/06/25 04:43:25;;;;;;;;;;;;;;;27.63;30.68;99396.22;4409771;32;19985;-70
2022/06/25 04:45:51;;;;;;;;;;;;;;;27.03;31.51;99405.25;4409732;32;19986;-70
2022/06/25 04:48:17;;;;;;;;;;;;;;;27.40;30.69;99407.19;4409823;32;19950;-70
2022/06/25 04:50:43;;;;;;;;;;;;;;;27.52;30.55;99402.47;4411060;32;20011;-70
2022/06/25 04:53:09;;;;;;;;;;;;;;;27.21;31.00;99412.66;4408615;32;20359;-70
2022/06/25 04:55:34;;;;;;;;;;;;;;;27.68;30.23;99414.69;4409049;32;19998;-70
2022/06/25 04:58:00;;;;;;;;;;;;;;;27.53;30.21;99418.47;4408776;32;20442;-70
2022/06/25 05:00:25;;;;;;;;;;;;;;;27.32;30.68;99423.78;4412962;32;20045;-70
2022/06/25 05:02:51;;;;;;;;;;;;;;;27.35;30.66;99424.72;4409857;32;20945;-70
2022/06/25 05:05:16;;;;;;;;;;;;;;;27.84;29.86;99427.69;4408873;32;19958;-70
2022/06/25 05:07:42;;;;;;;;;;;;;;;28.13;29.37;99432.47;4409521;32;20007;-70
2022/06/25 05:10:08;;;;;;;;;;;;;;;27.97;29.76;99433.19;4408068;32;20003;-70
2022/06/25 05:15:19;;;;;;;;;;;;;;;28.04;29.65;99432.38;4409457;32;20291;-70
2022/06/25 05:17:44;;;;;;;;;;;;;;;28.37;29.14;99446.13;4411293;32;20360;-70
2022/06/25 05:20:11;;;;;;;;;;;;;;;28.65;28.61;99448.59;4414941;32;20409;-70
2022/06/25 05:22:37;;;;;;;;;;;;;;;28.08;29.58;99456.62;4412920;32;19954;-70
2022/06/25 05:25:03;;;;;;;;;;;;;;;27.56;30.27;99463.53;4411934;32;20310;-70
2022/06/25 05:27:28;;;;;;;;;;;;;;;27.62;30.22;99466.97;4411412;32;20349;-70
2022/06/25 05:29:54;;;;;;;;;;;;;;;26.94;31.22;99470.13;4411466;32;19993;-70
2022/06/25 05:32:21;;;;;;;;;;;;;;;26.88;31.37;99468.84;4414245;32;20001;-70
2022/06/25 05:34:48;;;;;;;;;;;;;;;27.17;31.09;99473.72;4414794;32;19989;-70
2022/06/25 05:37:14;;;;;;;;;;;;;;;27.53;30.53;99479.16;4414749;32;20271;-70
2022/06/25 05:39:40;;;;;;;;;;;;;;;27.84;29.81;99489.19;4411937;32;20023;-70
2022/06/25 05:42:05;;;;;;;;;;;;;;;28.25;29.42;99482.69;4412381;32;19989;-70
2022/06/25 05:44:30;;;;;;;;;;;;;;;28.28;29.26;99484.41;4397466;32;20386;-70
2022/06/25 05:46:56;;;;;;;;;;;;;;;28.33;29.13;99480.53;4410343;32;20023;-70
2022/06/25 05:49:21;;;;;;;;;;;;;;;28.69;28.78;99485.81;4412051;32;20351;-70
2022/06/25 05:51:47;;;;;;;;;;;;;;;27.50;30.39;99488.22;4411732;32;20027;-70
2022/06/25 05:54:13;;;;;;;;;;;;;;;27.80;29.98;99488.03;4413586;32;19993;-70
2022/06/25 05:56:38;;;;;;;;;;;;;;;27.84;29.72;99500.75;4398981;32;20343;-70
2022/06/25 05:59:04;;;;;;;;;;;;;;;28.01;29.69;99491.41;4410746;32;20001;-70
2022/06/25 06:01:30;;;;;;;;;;;;;;;28.04;29.42;99496.00;4412359;32;20008;-70
2022/06/25 06:03:56;;;;;;;;;;;;;;;28.22;29.29;99507.03;4411849;32;20013;-70
2022/06/25 06:06:21;;;;;;;;;;;;;;;28.36;29.02;99493.03;4411218;32;20669;-70
2022/06/25 06:08:47;;;;;;;;;;;;;;;28.46;28.83;99508.41;4414016;32;19946;-70
2022/06/25 06:11:12;;;;;;;;;;;;;;;27.93;29.57;99514.59;4412845;32;20001;-70
2022/06/25 06:13:38;;;;;;;;;;;;;;;28.67;28.64;99511.69;4413082;32;20017;-70
2022/06/25 06:16:04;;;;;;;;;;;;;;;27.96;29.29;99510.53;4411961;32;20001;-70
2022/06/25 06:18:29;;;;;;;;;;;;;;;28.60;28.47;99515.41;4412838;32;19977;-70
2022/06/25 06:20:55;;;;;;;;;;;;;;;28.73;28.68;99526.69;4411524;32;20008;-70
2022/06/25 06:23:20;;;;;;;;;;;;;;;29.49;27.41;99521.59;4412305;32;20013;-70
2022/06/25 06:25:46;;;;;;;;;;;;;;;29.12;27.94;99527.84;4410473;32;19997;-70
2022/06/25 06:28:11;;;;;;;;;;;;;;;29.38;27.32;99527.13;4410425;32;19999;-70
2022/06/25 06:30:37;;;;;;;;;;;;;;;29.58;27.23;99534.59;4410723;32;20476;-70
2022/06/25 06:33:03;;;;;;;;;;;;;;;29.81;26.94;99537.97;4411933;32;20040;-70
2022/06/25 06:35:28;;;;;;;;;;;;;;;29.94;26.73;99540.53;4410094;32;19980;-70
2022/06/25 06:37:54;;;;;;;;;;;;;;;30.31;26.12;99542.09;4411053;32;20007;-70
2022/06/25 06:40:19;;;;;;;;;;;;;;;30.03;26.18;99543.44;4412947;32;20642;-70
2022/06/25 06:42:45;;;;;;;;;;;;;;;29.76;26.50;99562.25;4397883;32;20081;-70
2022/06/25 06:45:11;;;;;;;;;;;;;;;29.43;26.84;99563.78;4410571;32;20369;-70
2022/06/25 06:47:36;;;;;;;;;;;;;;;28.95;27.58;99560.44;4409997;32;19954;-70
2022/06/25 06:50:05;;;;;;;;;;;;;;;28.56;27.87;99562.16;4410852;32;19958;-70
2022/06/25 06:52:31;;;;;;;;;;;;;;;27.96;29.06;99559.69;4409886;32;19964;-70
2022/06/25 06:54:59;;;;;;;;;;;;;;;28.67;27.99;99555.88;4410184;32;20403;-70
2022/06/25 06:57:25;;;;;;;;;;;;;;;28.10;28.71;99563.06;4410388;32;19957;-70
2022/06/25 06:59:51;;;;;;;;;;;;;;;28.94;27.65;99567.59;4410687;32;20016;-70
2022/06/25 07:02:16;;;;;;;;;;;;;;;28.52;28.18;99558.91;4409517;32;20042;-70
2022/06/25 07:04:42;;;;;;;;;;;;;;;29.20;27.40;99566.19;4412392;32;20012;-70
2022/06/25 07:07:07;;;;;;;;;;;;;;;29.08;27.62;99585.44;4412664;32;20369;-70
2022/06/25 07:09:33;;;;;;;;;;;;;;;29.71;26.91;99577.75;4395774;32;20421;-69
2022/06/25 07:11:59;;;;;;;;;;;;;;;30.01;26.56;99581.03;4410788;32;20331;-69
2022/06/25 07:14:24;;;;;;;;;;;;;;;29.15;27.47;99599.84;4411373;32;20079;-69
2022/06/25 07:16:49;;;;;;;;;;;;;;;29.39;27.43;99596.09;4408432;32;20358;-69
2022/06/25 07:19:15;;;;;;;;;;;;;;;30.07;26.51;99593.09;4409406;32;19985;-69
2022/06/25 07:21:41;;;;;;;;;;;;;;;29.98;26.13;99595.97;4408778;32;20558;-69
2022/06/25 07:24:06;;;;;;;;;;;;;;;30.10;26.09;99597.69;4411484;32;20012;-69
2022/06/25 07:26:32;;;;;;;;;;;;;;;30.26;25.65;99612.81;4412253;32;20087;-69
2022/06/25 07:28:57;;;;;;;;;;;;;;;30.75;24.95;99609.53;4409283;32;20053;-69
2022/06/25 07:31:23;;;;;;;;;;;;;;;30.01;25.78;99609.25;4410191;32;20479;-69
2022/06/25 07:33:48;;;;;;;;;;;;;;;30.70;24.96;99604.72;4408484;32;19997;-69
2022/06/25 07:36:14;;;;;;;;;;;;;;;30.98;24.79;99606.97;4409922;32;20048;-69
2022/06/25 07:38:39;;;;;;;;;;;;;;;31.46;24.02;99607.84;4409012;32;20019;-69
2022/06/25 07:41:05;;;;;;;;;;;;;;;31.48;23.76;99621.78;4409160;32;20009;-69
2022/06/25 07:43:31;;;;;;;;;;;;;;;31.12;24.24;99616.03;4411003;32;21622;-69
2022/06/25 07:45:57;;;;;;;;;;;;;;;31.33;23.98;99627.87;4409967;32;19993;-69
2022/06/25 07:48:23;;;;;;;;;;;;;;;32.25;22.95;99629.84;4408784;32;20425;-69
2022/06/25 07:53:34;;;;;;;;;;;;;;;31.72;23.36;99614.91;4410491;32;20019;-69
2022/06/25 07:55:59;;;;;;;;;;;;;;;31.98;22.96;99629.28;4410833;32;20004;-69
2022/06/25 07:58:26;;;;;;;;;;;;;;;31.56;23.10;99628.19;4410610;32;20377;-69
2022/06/25 08:00:52;;;;;;;;;;;;;;;32.56;22.22;99629.94;4412065;32;20423;-69
2022/06/25 08:03:18;;;;;;;;;;;;;;;32.65;22.07;99629.13;4408395;32;19990;-70
2022/06/25 08:05:44;;;;;;;;;;;;;;;32.36;22.42;99625.53;4408286;32;20057;-70
2022/06/25 08:08:10;;;;;;;;;;;;;;;31.64;22.79;99629.59;4408029;32;19961;-69
2022/06/25 08:10:35;;;;;;;;;;;;;;;31.82;22.46;99627.31;4409084;32;20011;-70
2022/06/25 08:13:02;;;;;;;;;;;;;;;31.24;22.83;99635.19;4408233;32;19969;-70
2022/06/25 08:15:27;;;;;;;;;;;;;;;31.77;22.26;99634.16;4409312;32;20008;-70
2022/06/25 08:17:53;;;;;;;;;;;;;;;31.33;22.85;99637.38;4409427;32;19965;-70
2022/06/25 08:20:19;;;;;;;;;;;;;;;31.45;22.54;99629.59;4408993;32;20988;-70
2022/06/25 08:22:45;;;;;;;;;;;;;;;31.86;22.00;99628.37;4398226;32;19969;-70
2022/06/25 08:25:10;;;;;;;;;;;;;;;31.82;22.14;99638.97;4408969;32;20003;-70
2022/06/25 08:27:53;;;;;;;;;;;;;;;31.91;22.33;99632.38;4410748;32;20049;-70
2022/06/25 08:30:18;;;;;;;;;;;;;;;32.67;21.72;99640.91;4407914;32;19957;-70
2022/06/25 08:32:44;;;;;;;;;;;;;;;32.88;21.02;99637.34;4409739;32;19963;-70
2022/06/25 08:35:09;;;;;;;;;;;;;;;33.25;20.57;99636.34;4409464;32;19962;-70
2022/06/25 08:37:39;;;;;;;;;;;;;;;32.27;21.20;99621.25;4408798;32;20372;-70
2022/06/25 08:40:06;;;;;;;;;;;;;;;32.91;20.71;99636.09;4409929;32;20382;-70
2022/06/25 08:42:31;;;;;;;;;;;;;;;31.22;21.85;99642.97;4410047;32;19980;-69
2022/06/25 08:44:57;;;;;;;;;;;;;;;31.44;21.58;99650.56;4407734;32;20185;-69
2022/06/25 08:47:23;;;;;;;;;;;;;;;31.71;21.20;99646.12;4411767;32;20462;-69
2022/06/25 08:49:50;;;;;;;;;;;;;;;32.07;21.07;99640.16;4411705;32;20002;-70
2022/06/25 08:52:18;;;;;;;;;;;;;;;32.56;20.64;99654.00;4413841;32;20015;-70
2022/06/25 08:54:43;;;;;;;;;;;;;;;32.22;20.96;99650.69;4412093;32;20324;-69
2022/06/25 08:57:10;;;;;;;;;;;;;;;32.91;20.22;99645.59;4411062;32;19997;-70
2022/06/25 08:59:36;;;;;;;;;;;;;;;32.78;20.14;99659.88;4412242;32;19997;-69
2022/06/25 09:02:01;;;;;;;;;;;;;;;33.12;19.81;99663.13;4415777;32;19993;-70
2022/06/25 09:04:27;;;;;;;;;;;;;;;32.91;19.90;99641.94;4412340;32;20381;-71
2022/06/25 09:07:10;;;;;;;;;;;;;;;32.06;20.72;99647.34;4412985;32;20024;-70
2022/06/25 09:09:36;;;;;;;;;;;;;;;32.06;20.80;99635.69;4411136;32;19981;-71
2022/06/25 09:12:05;;;;;;;;;;;;;;;32.12;20.62;99644.88;4412688;32;19972;-69
2022/06/25 09:14:31;;;;;;;;;;;;;;;31.37;21.24;99634.78;4411007;32;19988;-69
2022/06/25 09:16:59;;;;;;;;;;;;;;;32.03;20.76;99636.94;4411741;32;20396;-69
2022/06/25 09:19:28;;;;;;;;;;;;;;;32.23;20.48;99652.22;4409891;32;19962;-69
2022/06/25 09:21:53;;;;;;;;;;;;;;;32.08;20.82;99644.59;4412881;32;19969;-70
2022/06/25 09:24:19;;;;;;;;;;;;;;;32.29;20.54;99650.53;4412793;32;20302;-70
2022/06/25 09:26:52;;;;;;;;;;;;;;;31.78;21.22;99653.91;4412533;32;19950;-70
2022/06/25 09:29:18;;;;;;;;;;;;;;;32.40;20.46;99652.06;4411526;32;20439;-70
2022/06/25 09:31:44;;;;;;;;;;;;;;;32.08;20.70;99643.81;4410849;32;20329;-71
2022/06/25 09:34:09;;;;;;;;;;;;;;;31.84;20.98;99644.94;4396254;32;19988;-69
2022/06/25 09:36:36;;;;;;;;;;;;;;;33.43;19.53;99645.59;4411905;32;19991;-69
2022/06/25 09:39:02;;;;;;;;;;;;;;;33.09;19.65;99652.69;4410345;32;20025;-70
2022/06/25 09:41:49;;;;;;;;;;;;;;;32.30;19.78;99654.97;4409846;32;20037;-70
2022/06/25 09:44:16;;;;;;;;;;;;;;;31.58;19.64;99655.31;4411577;32;20001;-69
2022/06/25 09:46:58;;;;;;;;;;;;;;;32.10;19.31;99641.06;4412112;32;19984;-69
2022/06/25 09:49:24;;;;;;;;;;;;;;;32.14;19.70;99647.94;4410071;32;19969;-70
2022/06/25 09:52:04;;;;;;;;;;;;;;;32.77;19.36;99646.69;4410898;32;20274;-70
2022/06/25 09:54:31;;;;;;;;;;;;;;;33.47;18.81;99666.31;4409999;32;19976;-69
2022/06/25 09:56:57;;;;;;;;;;;;;;;33.31;18.90;99663.00;4412013;32;20631;-70
2022/06/25 09:59:24;;;;;;;;;;;;;;;33.70;18.65;99663.50;4411578;32;20024;-69
2022/06/25 10:01:49;;;;;;;;;;;;;;;33.70;18.48;99657.69;4412292;32;20894;-70
2022/06/25 10:04:15;;;;;;;;;;;;;;;33.59;18.42;99675.91;4409165;32;20396;-70
2022/06/25 10:06:41;;;;;;;;;;;;;;;34.08;18.13;99657.37;4411420;32;20319;-70
2022/06/25 10:09:07;;;;;;;;;;;;;;;33.42;18.52;99652.81;4414923;32;21196;-70
2022/06/25 10:11:34;;;;;;;;;;;;;;;33.06;18.93;99653.16;4408956;32;20024;-70
2022/06/25 10:14:00;;;;;;;;;;;;;;;34.38;17.87;99653.53;4410979;32;19996;-70
2022/06/25 10:16:27;;;;;;;;;;;;;;;35.35;17.23;99652.50;4408757;32;20276;-70
2022/06/25 10:18:53;;;;;;;;;;;;;;;35.59;16.50;99639.31;4410863;32;20907;-70
2022/06/25 10:21:20;;;;;;;;;;;;;;;35.81;16.19;99646.53;4410384;32;20387;-70
2022/06/25 10:23:52;;;;;;;;;;;;;;;34.63;16.71;99636.19;4411635;32;19993;-70
2022/06/25 10:26:18;;;;;;;;;;;;;;;34.74;16.68;99631.75;4407911;32;19962;-70
2022/06/25 10:28:44;;;;;;;;;;;;;;;35.17;16.68;99651.34;4409738;32;19987;-70
2022/06/25 10:31:11;;;;;;;;;;;;;;;35.26;16.40;99635.03;4411418;32;20001;-70
2022/06/25 10:33:52;;;;;;;;;;;;;;;36.58;15.65;99640.03;4411931;32;20135;-69
2022/06/25 10:36:18;;;;;;;;;;;;;;;35.49;16.05;99640.88;4411636;32;19957;-69
2022/06/25 10:38:44;;;;;;;;;;;;;;;35.92;15.88;99628.16;4411303;32;20001;-69
2022/06/25 10:43:58;;;;;;;;;;;;;;;36.44;15.48;99648.00;4412206;32;19998;-69
2022/06/25 10:46:28;;;;;;;;;;;;;;;36.69;15.30;99650.16;4396600;32;20174;-69
2022/06/25 10:48:56;;;;;;;;;;;;;;;36.87;15.06;99651.19;4408900;32;19962;-69
2022/06/25 10:51:42;;;;;;;;;;;;;;;36.71;15.16;99650.25;4409850;32;20347;-69
2022/06/25 10:54:11;;;;;;;;;;;;;;;37.68;14.29;99649.03;4410429;32;20125;-70
2022/06/25 10:56:53;;;;;;;;;;;;;;;37.38;14.51;99644.47;4409754;32;20001;-70
2022/06/25 11:02:10;;;;;;;;;;;;;;;38.04;14.46;99656.00;3948272;32;15754490;-70
2022/06/25 11:04:37;;;;;;;;;;;;;;;38.04;14.46;99656.00;4424877;32;19953;-69
2022/06/25 11:07:08;;;;;;;;;;;;;;;37.47;14.50;99660.34;4424211;32;20038;-69
2022/06/25 11:09:34;;;;;;;;;;;;;;;37.85;14.39;99648.44;4425468;32;20012;-70
2022/06/25 11:12:00;;;;;;;;;;;;;;;37.40;14.67;99646.75;4427353;32;20420;-70
2022/06/25 11:14:26;;;;;;;;;;;;;;;36.88;14.79;99621.22;4424047;32;19960;-69
2022/06/25 11:16:53;;;;;;;;;;;;;;;36.18;15.43;99647.25;4424243;32;20305;-69
2022/06/25 11:19:19;;;;;;;;;;;;;;;36.76;14.96;99641.06;4425845;32;20414;-69
2022/06/25 11:21:46;;;;;;;;;;;;;;;37.01;14.66;99646.84;4427488;32;19969;-69
2022/06/25 11:29:25;;;;;;;;;;;;;;;37.61;14.23;99655.94;3950902;32;15722462;-71
2022/06/25 11:31:51;;;;;;;;;;;;;;;37.61;14.23;99655.94;4424139;32;19979;-70
2022/06/25 11:34:19;;;;;;;;;;;;;;;37.65;14.11;99629.78;4427888;32;20381;-70
2022/06/25 11:36:53;;;;;;;;;;;;;;;37.90;14.01;99631.78;4423642;32;19969;-69
2022/06/25 11:39:19;;;;;;;;;;;;;;;37.21;14.54;99642.09;4426706;32;19989;-70
2022/06/25 11:41:48;;;;;;;;;;;;;;;37.51;14.58;99645.84;4426267;32;19998;-70
2022/06/25 11:44:14;;;;;;;;;;;;;;;37.71;14.53;99641.06;4426609;32;19973;-70
2022/06/25 11:46:40;;;;;;;;;;;;;;;38.16;14.09;99661.75;4423967;32;20008;-70
2022/06/25 11:49:06;;;;;;;;;;;;;;;37.54;14.57;99656.28;4424473;32;19997;-71
2022/06/25 11:51:31;;;;;;;;;;;;;;;36.75;15.16;99650.50;4424342;32;19995;-70
2022/06/25 11:54:02;;;;;;;;;;;;;;;36.09;15.27;99642.34;4426077;32;20008;-70
2022/06/25 11:56:28;;;;;;;;;;;;;;;35.83;15.56;99645.91;4425579;32;20009;-70
2022/06/25 11:58:53;;;;;;;;;;;;;;;35.86;15.74;99647.53;4426575;32;19957;-70
2022/06/25 12:01:26;;;;;;;;;;;;;;;34.66;17.55;99652.44;4425397;32;19957;-70
2022/06/25 12:03:53;;;;;;;;;;;;;;;36.22;16.27;99652.56;4426298;32;20391;-70
2022/06/25 12:06:19;;;;;;;;;;;;;;;36.06;16.15;99655.34;4424114;32;19998;-70
2022/06/25 12:08:45;;;;;;;;;;;;;;;36.31;16.24;99654.59;4425730;32;20347;-70
2022/06/25 12:11:11;;;;;;;;;;;;;;;36.29;16.06;99656.66;4425136;32;20402;-70
2022/06/25 12:13:36;;;;;;;;;;;;;;;37.16;15.35;99663.03;4423303;32;21671;-70
2022/06/25 12:16:04;;;;;;;;;;;;;;;38.08;14.75;99650.31;4425922;32;19996;-70
2022/06/25 12:18:34;;;;;;;;;;;;;;;37.62;15.08;99657.50;4425385;32;20477;-70
2022/06/25 12:21:00;;;;;;;;;;;;;;;36.83;15.75;99654.66;4414130;32;20389;-70
2022/06/25 12:23:25;;;;;;;;;;;;;;;37.16;15.50;99645.44;4424612;32;20299;-70
2022/06/25 12:25:50;;;;;;;;;;;;;;;35.88;16.78;99660.13;4426062;32;19950;-70
2022/06/25 12:28:16;;;;;;;;;;;;;;;35.05;17.80;99681.97;4424086;32;20003;-70
2022/06/25 12:30:42;;;;;;;;;;;;;;;34.77;18.37;99692.62;4428290;32;19957;-69
2022/06/25 12:33:13;;;;;;;;;;;;;;;33.53;22.75;99716.34;4411545;32;20052;-70
2022/06/25 12:35:40;;;;;;;;;;;;;;;32.57;25.13;99727.56;4425389;32;19961;-68
2022/06/25 12:43:18;;;;;;;;;;;;;;;30.89;28.39;99712.31;3949269;32;15728360;-69
2022/06/25 12:45:45;;;;;;;;;;;;;;;30.89;28.39;99712.31;4426584;32;19965;-69
2022/06/25 12:48:11;;;;;;;;;;;;;;;31.38;28.56;99709.00;4425163;32;19993;-69
2022/06/25 12:50:38;;;;;;;;;;;;;;;30.83;27.55;99697.31;4414417;32;19992;-70
2022/06/25 12:53:11;;;;;;;;;;;;;;;32.10;27.36;99688.41;4427794;32;19981;-69
2022/06/25 12:55:37;;;;;;;;;;;;;;;33.94;24.72;99679.78;4422694;32;20388;-70
2022/06/25 12:58:04;;;;;;;;;;;;;;;34.87;21.98;99677.91;4426201;32;20331;-68
2022/06/25 13:00:30;;;;;;;;;;;;;;;35.26;21.17;99684.78;4426335;32;19993;-69
2022/06/25 13:02:56;;;;;;;;;;;;;;;36.05;19.77;99685.28;4425109;32;20361;-68
2022/06/25 13:05:22;;;;;;;;;;;;;;;37.78;18.97;99681.06;4426539;32;19965;-68
2022/06/25 13:07:47;;;;;;;;;;;;;;;39.07;16.52;99676.50;4425226;32;20107;-70
2022/06/25 13:10:14;;;;;;;;;;;;;;;40.15;15.53;99677.69;4424776;32;20024;-70
2022/06/25 13:12:39;;;;;;;;;;;;;;;40.34;15.18;99680.72;4428210;32;19957;-70
2022/06/25 13:15:05;;;;;;;;;;;;;;;41.51;13.85;99673.56;4426625;32;20017;-70
2022/06/25 13:17:31;;;;;;;;;;;;;;;41.72;13.87;99673.63;4425850;32;20035;-70
2022/06/25 13:19:57;;;;;;;;;;;;;;;41.95;13.38;99687.75;4425579;32;19954;-70